Time;durP1;ratioP1;P1;durP2;ratioP2;P2;SDS_P1;SDS_P2;PMS_P1;PMS_P2;Temp;Humidity;BMP_temperature;BMP_pressure;BME280_temperature;BME280_humidity;BME280_pressure;Samples;Min_cycle;Max_cycle;Signal;HPM_P1;HPM_P2
2021/12/20 00:02:11;;;;;;;;;;;6.40;99.90;;;;;;5012658;28;19925;-86
2021/12/20 00:04:36;;;;;;;;;;;6.50;99.90;;;;;;4979951;28;19926;-86
2021/12/20 00:07:02;;;;;;;;;;;6.50;99.90;;;;;;4996157;28;19936;-86
2021/12/20 00:09:30;;;;;;;;;;;6.40;99.90;;;;;;4980428;28;19929;-86
2021/12/20 00:11:55;;;;;;;;;;;6.40;99.90;;;;;;5012577;28;19932;-86
2021/12/20 00:14:23;;;;;;;;;;;6.40;99.90;;;;;;4995835;28;19925;-86
2021/12/20 00:16:52;;;;;;;;;;;6.30;99.90;;;;;;4996005;28;19952;-86
2021/12/20 00:19:25;;;;;;;;;;;6.30;99.90;;;;;;4980352;28;19926;-86
2021/12/20 00:21:50;;;;;;;;;;;6.40;99.90;;;;;;5012416;28;19925;-86
2021/12/20 00:24:18;;;;;;;;;;;6.40;99.90;;;;;;4979826;28;20028;-86
2021/12/20 00:26:44;;;;;;;;;;;6.30;99.90;;;;;;4996755;28;19925;-86
2021/12/20 00:29:09;;;;;;;;;;;6.30;99.90;;;;;;4979007;28;19991;-86
2021/12/20 00:31:37;;;;;;;;;;;6.40;99.90;;;;;;4979879;28;19925;-86
2021/12/20 00:34:03;;;;;;;;;;;6.30;99.90;;;;;;4979274;28;19975;-86
2021/12/20 00:36:31;;;;;;;;;;;6.30;99.90;;;;;;4980193;28;20328;-86
2021/12/20 00:41:43;;;;;;;;;;;6.30;99.90;;;;;;5012614;28;19994;-86
2021/12/20 00:44:09;;;;;;;;;;;6.30;99.90;;;;;;4995639;28;19925;-86
2021/12/20 00:46:34;;;;;;;;;;;6.30;99.90;;;;;;4979930;28;19932;-86
2021/12/20 00:49:02;;;;;;;;;;;6.20;99.90;;;;;;4979545;28;20060;-86
2021/12/20 00:51:31;;;;;;;;;;;6.20;99.90;;;;;;4997334;28;20338;-86
2021/12/20 00:53:57;;;;;;;;;;;6.30;99.90;;;;;;4982448;28;20020;-86
2021/12/20 00:56:30;;;;;;;;;;;6.30;99.90;;;;;;4982995;28;20026;-86
2021/12/20 00:58:58;;;;;;;;;;;6.20;99.90;;;;;;5015089;28;19925;-86
2021/12/20 01:01:26;;;;;;;;;;;6.20;99.90;;;;;;4999026;28;19925;-86
2021/12/20 01:03:54;;;;;;;;;;;6.30;99.90;;;;;;4984352;28;19929;-86
2021/12/20 01:06:20;;;;;;;;;;;6.30;99.90;;;;;;5003690;28;20353;-86
2021/12/20 01:08:47;;;;;;;;;;;6.30;99.90;;;;;;5003401;28;19962;-86
2021/12/20 01:11:25;;;;;;;;;;;6.20;99.90;;;;;;4986881;28;19925;-86
2021/12/20 01:13:51;;;;;;;;;;;6.30;99.90;;;;;;4988506;28;19925;-86
2021/12/20 01:16:29;;;;;;;;;;;6.20;99.90;;;;;;4986330;28;20402;-86
2021/12/20 01:18:56;;;;;;;;;;;6.20;99.90;;;;;;4988513;28;19932;-86
2021/12/20 01:21:29;;;;;;;;;;;6.20;99.90;;;;;;5002971;28;19925;-86
2021/12/20 01:23:54;;;;;;;;;;;6.20;99.90;;;;;;4987932;28;20266;-86
2021/12/20 01:26:22;;;;;;;;;;;6.20;99.90;;;;;;5001894;28;20020;-86
2021/12/20 01:28:50;;;;;;;;;;;6.30;99.90;;;;;;5002256;28;19925;-86
2021/12/20 01:31:21;;;;;;;;;;;6.30;99.90;;;;;;4986449;28;19925;-86
2021/12/20 01:33:47;;;;;;;;;;;6.30;99.90;;;;;;5003073;28;20421;-85
2021/12/20 01:36:15;;;;;;;;;;;6.30;99.90;;;;;;5002348;28;19970;-86
2021/12/20 01:38:41;;;;;;;;;;;6.30;99.90;;;;;;4986652;28;20019;-86
2021/12/20 01:41:08;;;;;;;;;;;6.40;99.90;;;;;;5002218;28;20063;-86
2021/12/20 01:43:34;;;;;;;;;;;6.30;99.90;;;;;;5018642;28;19948;-86
2021/12/20 01:46:00;;;;;;;;;;;6.30;99.90;;;;;;4985895;28;19925;-86
2021/12/20 01:48:25;;;;;;;;;;;6.30;99.90;;;;;;5002276;28;19947;-86
2021/12/20 01:53:39;;;;;;;;;;;6.30;99.90;;;;;;5003692;28;20027;-86
2021/12/20 01:56:10;;;;;;;;;;;6.20;99.90;;;;;;4986349;28;19932;-86
2021/12/20 01:58:39;;;;;;;;;;;6.20;99.90;;;;;;5002781;28;19932;-86
2021/12/20 02:03:44;;;;;;;;;;;6.00;99.90;;;;;;5002392;28;20019;-86
2021/12/20 02:06:18;;;;;;;;;;;6.00;99.90;;;;;;5002002;28;20015;-86
2021/12/20 02:08:51;;;;;;;;;;;6.00;99.90;;;;;;5003362;28;19925;-86
2021/12/20 02:11:18;;;;;;;;;;;6.00;99.90;;;;;;5017684;28;20472;-86
2021/12/20 02:13:43;;;;;;;;;;;6.00;99.90;;;;;;5001566;28;19925;-86
2021/12/20 02:16:09;;;;;;;;;;;6.00;99.90;;;;;;4999132;28;19925;-86
2021/12/20 02:18:35;;;;;;;;;;;6.00;99.90;;;;;;4985466;28;19932;-86
2021/12/20 02:21:00;;;;;;;;;;;5.90;99.90;;;;;;5002020;28;19924;-86
2021/12/20 02:23:26;;;;;;;;;;;5.90;99.90;;;;;;4985180;28;19980;-86
2021/12/20 02:25:52;;;;;;;;;;;6.00;99.90;;;;;;4985081;28;19936;-86
2021/12/20 02:28:20;;;;;;;;;;;5.90;99.90;;;;;;5000908;28;19929;-86
2021/12/20 02:38:43;;;;;;;;;;;6.00;99.90;;;;;;5004156;28;19925;-86
2021/12/20 02:41:16;;;;;;;;;;;5.90;99.90;;;;;;5001417;28;19972;-86
2021/12/20 02:43:43;;;;;;;;;;;5.90;99.90;;;;;;5001513;28;20007;-86
2021/12/20 02:46:49;;;;;;;;;;;5.90;99.90;;;;;;5000937;28;19925;-86
2021/12/20 02:49:14;;;;;;;;;;;5.90;99.90;;;;;;5003295;28;20363;-86
2021/12/20 02:51:39;;;;;;;;;;;6.00;99.90;;;;;;5001385;28;19925;-86
2021/12/20 02:54:06;;;;;;;;;;;6.00;99.90;;;;;;5000506;28;19932;-86
2021/12/20 02:56:32;;;;;;;;;;;6.00;99.90;;;;;;5000897;28;20284;-86
2021/12/20 02:58:57;;;;;;;;;;;6.00;99.90;;;;;;5000775;28;19931;-86
2021/12/20 03:01:26;;;;;;;;;;;6.00;99.90;;;;;;5001082;28;20330;-86
2021/12/20 03:03:52;;;;;;;;;;;6.00;99.90;;;;;;4984979;28;20023;-86
2021/12/20 03:06:33;;;;;;;;;;;6.00;99.90;;;;;;5000306;28;20282;-86
2021/12/20 03:08:59;;;;;;;;;;;6.00;99.90;;;;;;5002184;28;20270;-86
2021/12/20 03:11:26;;;;;;;;;;;5.90;99.90;;;;;;4984454;28;20288;-86
2021/12/20 03:14:06;;;;;;;;;;;;;;;;;;;;;
2021/12/20 03:16:33;;;;;;;;;;;6.00;99.90;;;;;;5001859;28;19933;-86
2021/12/20 03:19:01;;;;;;;;;;;5.90;99.90;;;;;;5017345;28;20321;-86
2021/12/20 03:21:27;;;;;;;;;;;5.90;99.90;;;;;;5000520;28;19936;-86
2021/12/20 03:23:56;;;;;;;;;;;5.90;99.90;;;;;;5000836;28;20297;-86
2021/12/20 03:26:21;;;;;;;;;;;5.90;99.90;;;;;;4983723;28;20109;-86
2021/12/20 03:28:49;;;;;;;;;;;5.90;99.90;;;;;;5000693;28;19925;-86
2021/12/20 03:31:15;;;;;;;;;;;5.90;99.90;;;;;;4984343;28;19931;-86
2021/12/20 03:33:43;;;;;;;;;;;5.90;99.90;;;;;;4984383;28;19925;-86
2021/12/20 03:36:08;;;;;;;;;;;5.90;99.90;;;;;;5016892;28;20297;-86
2021/12/20 03:38:36;;;;;;;;;;;5.80;99.90;;;;;;4983880;28;20091;-86
2021/12/20 03:41:02;;;;;;;;;;;5.90;99.90;;;;;;5000363;28;19929;-86
2021/12/20 03:43:33;;;;;;;;;;;5.80;99.90;;;;;;4999991;28;19933;-86
2021/12/20 03:46:02;;;;;;;;;;;5.70;99.90;;;;;;5000670;28;19925;-86
2021/12/20 03:48:30;;;;;;;;;;;5.80;99.90;;;;;;4998941;28;19979;-86
2021/12/20 03:51:01;;;;;;;;;;;5.70;99.90;;;;;;4983715;28;20022;-86
2021/12/20 03:53:30;;;;;;;;;;;5.80;99.90;;;;;;5028572;28;20052;-86
2021/12/20 03:56:05;;;;;;;;;;;5.70;99.90;;;;;;4996748;28;19933;-86
2021/12/20 03:58:34;;;;;;;;;;;5.60;99.90;;;;;;4981022;28;19977;-86
2021/12/20 04:01:00;;;;;;;;;;;5.70;99.90;;;;;;4997244;28;19925;-86
2021/12/20 04:03:26;;;;;;;;;;;5.60;99.90;;;;;;4996086;28;20385;-86
2021/12/20 04:05:52;;;;;;;;;;;5.70;99.90;;;;;;4996793;28;19930;-86
2021/12/20 04:08:17;;;;;;;;;;;5.60;99.90;;;;;;4980563;28;20250;-86
2021/12/20 04:10:43;;;;;;;;;;;5.70;99.90;;;;;;4996385;28;19925;-86
2021/12/20 04:13:09;;;;;;;;;;;5.60;99.90;;;;;;4980378;28;20286;-86
2021/12/20 04:15:38;;;;;;;;;;;5.60;99.90;;;;;;4995962;28;19980;-86
2021/12/20 04:18:03;;;;;;;;;;;5.60;99.90;;;;;;4980298;28;19925;-86
2021/12/20 04:20:31;;;;;;;;;;;5.60;99.90;;;;;;4979924;28;19926;-86
2021/12/20 04:22:57;;;;;;;;;;;5.60;99.90;;;;;;4996715;28;19932;-86
2021/12/20 04:25:25;;;;;;;;;;;5.50;99.90;;;;;;4979810;28;19925;-86
2021/12/20 04:27:50;;;;;;;;;;;5.50;99.90;;;;;;5012502;28;19925;-86
2021/12/20 04:30:16;;;;;;;;;;;5.50;99.90;;;;;;4980176;28;20016;-86
2021/12/20 04:32:46;;;;;;;;;;;5.50;99.90;;;;;;4995763;28;19937;-86
2021/12/20 04:35:13;;;;;;;;;;;5.50;99.90;;;;;;4980201;28;19929;-86
2021/12/20 04:37:41;;;;;;;;;;;5.50;99.90;;;;;;4995548;28;20274;-86
2021/12/20 04:40:10;;;;;;;;;;;5.50;99.90;;;;;;4996005;28;19925;-86
2021/12/20 04:42:35;;;;;;;;;;;5.50;99.90;;;;;;4996103;28;19937;-86
2021/12/20 04:45:01;;;;;;;;;;;5.50;99.90;;;;;;4995945;28;20288;-86
2021/12/20 04:47:31;;;;;;;;;;;5.50;99.90;;;;;;4979297;28;20293;-86
2021/12/20 04:49:59;;;;;;;;;;;5.50;99.90;;;;;;4996590;28;19926;-86
2021/12/20 04:52:25;;;;;;;;;;;5.50;99.90;;;;;;4979490;28;19925;-86
2021/12/20 04:54:51;;;;;;;;;;;5.50;99.90;;;;;;4979761;28;19925;-86
2021/12/20 04:57:17;;;;;;;;;;;5.40;99.90;;;;;;4996041;28;20255;-86
2021/12/20 04:59:45;;;;;;;;;;;5.50;99.90;;;;;;4979362;28;19932;-86
2021/12/20 05:02:10;;;;;;;;;;;5.50;99.90;;;;;;4995763;28;19933;-86
2021/12/20 05:04:36;;;;;;;;;;;5.50;99.90;;;;;;4979427;28;19926;-86
2021/12/20 05:07:04;;;;;;;;;;;5.50;99.90;;;;;;4979668;28;19996;-85
2021/12/20 05:09:36;;;;;;;;;;;5.50;99.90;;;;;;4994950;28;19929;-86
2021/12/20 05:12:10;;;;;;;;;;;5.50;99.90;;;;;;4980497;28;19929;-86
2021/12/20 05:14:40;;;;;;;;;;;5.50;99.90;;;;;;4996196;28;19976;-86
2021/12/20 05:17:05;;;;;;;;;;;5.50;99.90;;;;;;4996071;28;19933;-86
2021/12/20 05:19:31;;;;;;;;;;;5.50;99.90;;;;;;4979266;28;20282;-86
2021/12/20 05:22:04;;;;;;;;;;;5.50;99.90;;;;;;4978446;28;19925;-86
2021/12/20 05:24:30;;;;;;;;;;;5.50;99.90;;;;;;4995983;28;20012;-86
2021/12/20 05:26:58;;;;;;;;;;;5.50;99.90;;;;;;4978889;28;20418;-86
2021/12/20 05:29:24;;;;;;;;;;;5.60;99.90;;;;;;4995566;28;20071;-86
2021/12/20 05:31:50;;;;;;;;;;;5.50;99.90;;;;;;5011655;28;20134;-87
2021/12/20 05:34:16;;;;;;;;;;;5.60;99.90;;;;;;4979408;28;19948;-86
2021/12/20 05:36:42;;;;;;;;;;;5.50;99.90;;;;;;4995279;28;19929;-84
2021/12/20 05:39:10;;;;;;;;;;;5.50;99.90;;;;;;4995442;28;20270;-86
2021/12/20 05:41:35;;;;;;;;;;;5.60;99.90;;;;;;4995258;28;19976;-86
2021/12/20 05:44:03;;;;;;;;;;;5.50;99.90;;;;;;4995894;28;19929;-85
2021/12/20 05:46:34;;;;;;;;;;;5.50;99.90;;;;;;4995698;28;19926;-92
2021/12/20 05:49:02;;;;;;;;;;;5.30;99.90;;;;;;4980912;28;20012;-87
2021/12/20 05:51:30;;;;;;;;;;;5.30;99.90;;;;;;4983294;28;19932;-87
2021/12/20 05:53:58;;;;;;;;;;;5.20;99.90;;;;;;4982340;28;19925;-86
2021/12/20 05:56:29;;;;;;;;;;;5.10;99.90;;;;;;4999017;28;19926;-87
2021/12/20 05:59:00;;;;;;;;;;;5.00;99.90;;;;;;4983667;28;19925;-86
2021/12/20 06:01:29;;;;;;;;;;;4.90;99.90;;;;;;4983116;28;20251;-85
2021/12/20 06:03:54;;;;;;;;;;;4.90;99.90;;;;;;4998896;28;19975;-86
2021/12/20 06:06:20;;;;;;;;;;;4.70;99.90;;;;;;4998918;28;19976;-86
2021/12/20 06:08:45;;;;;;;;;;;4.70;99.90;;;;;;4982184;28;19976;-85
2021/12/20 06:11:11;;;;;;;;;;;4.50;99.90;;;;;;4998327;28;19933;-85
2021/12/20 06:13:37;;;;;;;;;;;4.40;99.90;;;;;;4997947;28;20008;-86
2021/12/20 06:16:05;;;;;;;;;;;4.30;99.90;;;;;;4982183;28;19925;-85
2021/12/20 06:18:30;;;;;;;;;;;4.20;99.90;;;;;;4999220;28;19929;-85
2021/12/20 06:20:56;;;;;;;;;;;4.10;99.90;;;;;;4982068;28;20321;-85
2021/12/20 06:23:22;;;;;;;;;;;4.00;99.90;;;;;;4998730;28;19952;-85
2021/12/20 06:25:49;;;;;;;;;;;4.00;99.90;;;;;;4981988;28;20285;-85
2021/12/20 06:28:15;;;;;;;;;;;3.90;99.90;;;;;;4998834;28;20289;-85
2021/12/20 06:30:41;;;;;;;;;;;3.80;99.90;;;;;;4997913;28;19925;-86
2021/12/20 06:33:06;;;;;;;;;;;3.80;99.90;;;;;;4997779;28;19990;-85
2021/12/20 06:35:32;;;;;;;;;;;3.70;99.90;;;;;;4982049;28;19929;-85
2021/12/20 06:38:05;;;;;;;;;;;3.60;99.90;;;;;;4982433;28;20027;-85
2021/12/20 06:40:34;;;;;;;;;;;3.50;99.90;;;;;;4982745;28;19925;-85
2021/12/20 06:43:00;;;;;;;;;;;3.50;99.90;;;;;;4981942;28;19965;-85
2021/12/20 06:45:29;;;;;;;;;;;3.40;99.90;;;;;;4982057;28;20018;-85
2021/12/20 06:47:56;;;;;;;;;;;3.40;99.90;;;;;;4981872;28;19925;-86
2021/12/20 06:50:22;;;;;;;;;;;3.20;99.90;;;;;;4998403;28;19929;-85
2021/12/20 06:52:48;;;;;;;;;;;3.20;99.90;;;;;;4997166;28;19979;-85
2021/12/20 06:55:13;;;;;;;;;;;3.20;99.90;;;;;;4980927;28;19932;-85
2021/12/20 06:57:40;;;;;;;;;;;3.10;99.90;;;;;;4997810;28;19930;-85
2021/12/20 07:00:06;;;;;;;;;;;3.00;99.90;;;;;;4981434;28;19925;-85
2021/12/20 07:02:32;;;;;;;;;;;3.00;99.90;;;;;;4997346;28;20024;-85
2021/12/20 07:05:00;;;;;;;;;;;3.00;99.90;;;;;;4981374;28;19984;-85
2021/12/20 07:07:27;;;;;;;;;;;3.10;99.90;;;;;;4981614;28;20072;-85
2021/12/20 07:09:53;;;;;;;;;;;3.00;99.90;;;;;;4997607;28;19926;-85
2021/12/20 07:12:19;;;;;;;;;;;2.90;99.90;;;;;;4981396;28;19932;-86
2021/12/20 07:14:48;;;;;;;;;;;2.90;99.90;;;;;;4997190;28;20285;-85
2021/12/20 07:17:14;;;;;;;;;;;2.80;99.90;;;;;;4997939;28;20255;-85
2021/12/20 07:19:40;;;;;;;;;;;2.80;99.90;;;;;;4997266;28;19933;-85
2021/12/20 07:22:05;;;;;;;;;;;2.80;99.90;;;;;;4996394;28;20391;-85
2021/12/20 07:24:31;;;;;;;;;;;2.70;99.90;;;;;;4997354;28;19929;-85
2021/12/20 07:26:56;;;;;;;;;;;2.50;99.90;;;;;;4980843;28;19925;-85
2021/12/20 07:29:24;;;;;;;;;;;2.60;99.90;;;;;;4981279;28;19926;-85
2021/12/20 07:31:52;;;;;;;;;;;2.60;99.90;;;;;;4997160;28;20001;-85
2021/12/20 07:34:21;;;;;;;;;;;2.50;99.90;;;;;;4996963;28;19925;-85
2021/12/20 07:36:54;;;;;;;;;;;2.40;99.90;;;;;;4997209;28;19976;-85
2021/12/20 07:39:19;;;;;;;;;;;2.30;99.90;;;;;;4998350;28;19925;-85
2021/12/20 07:41:49;;;;;;;;;;;2.40;99.90;;;;;;4980497;28;19952;-85
2021/12/20 07:44:17;;;;;;;;;;;2.30;99.90;;;;;;4980818;28;19926;-85
2021/12/20 07:46:42;;;;;;;;;;;2.30;99.90;;;;;;4981129;28;19925;-85
2021/12/20 07:49:08;;;;;;;;;;;2.30;99.90;;;;;;4996634;28;20255;-85
2021/12/20 07:51:33;;;;;;;;;;;2.20;99.90;;;;;;4980481;28;20015;-85
2021/12/20 07:53:59;;;;;;;;;;;2.30;99.90;;;;;;4979534;28;19926;-85
2021/12/20 07:56:25;;;;;;;;;;;2.20;99.90;;;;;;4996862;28;19926;-85
2021/12/20 07:58:50;;;;;;;;;;;2.10;99.90;;;;;;4996722;28;20277;-85
2021/12/20 08:01:18;;;;;;;;;;;2.10;99.90;;;;;;4980049;28;20309;-85
2021/12/20 08:03:44;;;;;;;;;;;2.00;99.90;;;;;;4996832;28;20393;-85
2021/12/20 08:06:10;;;;;;;;;;;2.10;99.90;;;;;;5012725;28;19925;-85
2021/12/20 08:08:38;;;;;;;;;;;2.00;99.90;;;;;;4980290;28;19926;-85
2021/12/20 08:11:11;;;;;;;;;;;2.10;99.90;;;;;;4980182;28;19925;-85
2021/12/20 08:13:44;;;;;;;;;;;2.10;99.90;;;;;;4981591;28;19932;-85
2021/12/20 08:16:16;;;;;;;;;;;2.10;99.90;;;;;;4996955;28;19933;-85
2021/12/20 08:18:42;;;;;;;;;;;2.00;99.90;;;;;;4996662;28;19929;-85
2021/12/20 08:21:10;;;;;;;;;;;2.10;99.90;;;;;;4979511;28;19977;-85
2021/12/20 08:23:36;;;;;;;;;;;2.00;99.90;;;;;;4980704;28;19976;-85
2021/12/20 08:26:02;;;;;;;;;;;2.00;99.90;;;;;;4980026;28;19936;-85
2021/12/20 08:28:27;;;;;;;;;;;1.90;99.90;;;;;;4996362;28;19926;-85
2021/12/20 08:30:58;;;;;;;;;;;1.90;99.90;;;;;;4980090;28;20476;-86
2021/12/20 08:33:24;;;;;;;;;;;1.90;99.90;;;;;;4995908;28;19926;-85
2021/12/20 08:35:53;;;;;;;;;;;1.80;99.90;;;;;;4995931;28;20402;-85
2021/12/20 08:38:18;;;;;;;;;;;1.90;99.90;;;;;;4995802;28;19926;-85
2021/12/20 08:40:47;;;;;;;;;;;1.90;99.90;;;;;;4980088;28;20392;-85
2021/12/20 08:43:16;;;;;;;;;;;1.90;99.90;;;;;;4995832;28;19969;-85
2021/12/20 08:45:42;;;;;;;;;;;1.90;99.90;;;;;;4996451;28;19929;-85
2021/12/20 08:48:10;;;;;;;;;;;1.90;99.90;;;;;;5028319;28;20366;-85
2021/12/20 08:50:46;;;;;;;;;;;1.90;99.90;;;;;;4996495;28;19979;-85
2021/12/20 08:53:14;;;;;;;;;;;1.90;99.90;;;;;;4979286;28;20019;-85
2021/12/20 08:55:50;;;;;;;;;;;2.00;99.90;;;;;;4980713;28;19980;-85
2021/12/20 08:58:16;;;;;;;;;;;2.00;99.90;;;;;;4979427;28;19984;-85
2021/12/20 09:00:41;;;;;;;;;;;2.00;99.90;;;;;;4995707;28;20305;-85
2021/12/20 09:03:09;;;;;;;;;;;2.00;99.90;;;;;;4979417;28;19980;-85
2021/12/20 09:05:40;;;;;;;;;;;2.00;99.90;;;;;;4996857;28;19933;-85
2021/12/20 09:08:09;;;;;;;;;;;2.00;99.90;;;;;;4995328;28;19926;-85
2021/12/20 09:10:37;;;;;;;;;;;2.10;99.90;;;;;;4996307;28;20286;-87
2021/12/20 09:13:11;;;;;;;;;;;2.00;99.90;;;;;;4978999;28;20011;-86
2021/12/20 09:15:36;;;;;;;;;;;2.00;99.90;;;;;;4995495;28;19925;-85
2021/12/20 09:20:50;;;;;;;;;;;2.10;99.90;;;;;;4998596;28;19933;-86
2021/12/20 09:23:27;;;;;;;;;;;2.10;99.90;;;;;;4979518;28;20020;-86
2021/12/20 09:25:55;;;;;;;;;;;2.10;99.90;;;;;;4983648;28;19925;-86
2021/12/20 09:28:23;;;;;;;;;;;2.20;99.90;;;;;;4983242;28;19925;-86
2021/12/20 09:30:52;;;;;;;;;;;2.20;99.90;;;;;;4983396;28;20036;-86
2021/12/20 09:33:31;;;;;;;;;;;2.20;99.90;;;;;;5000359;28;20274;-86
2021/12/20 09:36:02;;;;;;;;;;;2.20;99.90;;;;;;5000472;28;19926;-85
2021/12/20 09:38:35;;;;;;;;;;;2.30;99.90;;;;;;4998945;28;20377;-86
2021/12/20 09:41:59;;;;;;;;;;;2.30;99.90;;;;;;5000199;28;19932;-86
2021/12/20 09:43:56;;;;;;;;;;;2.30;99.90;;;;;;4999699;28;19926;-87
2021/12/20 09:46:27;;;;;;;;;;;2.30;99.90;;;;;;4983482;28;19929;-87
2021/12/20 09:48:53;;;;;;;;;;;2.30;99.90;;;;;;4999049;28;20395;-87
2021/12/20 09:51:39;;;;;;;;;;;2.40;99.90;;;;;;4998770;28;19995;-87
2021/12/20 09:54:07;;;;;;;;;;;2.40;99.90;;;;;;4997807;28;19932;-87
2021/12/20 09:56:33;;;;;;;;;;;2.50;99.90;;;;;;4982949;28;20285;-87
2021/12/20 09:59:01;;;;;;;;;;;2.50;99.90;;;;;;4982881;28;19925;-87
2021/12/20 10:01:38;;;;;;;;;;;2.60;99.90;;;;;;4982193;28;19930;-87
2021/12/20 10:04:04;;;;;;;;;;;2.60;99.90;;;;;;4998494;28;19981;-87
2021/12/20 10:06:30;;;;;;;;;;;2.60;99.90;;;;;;4982278;28;20049;-85
2021/12/20 10:09:10;;;;;;;;;;;2.70;99.90;;;;;;5015019;28;19971;-86
2021/12/20 10:11:43;;;;;;;;;;;2.70;99.90;;;;;;4983935;28;19933;-86
2021/12/20 10:14:19;;;;;;;;;;;2.70;99.90;;;;;;4999473;28;20278;-86
2021/12/20 10:16:44;;;;;;;;;;;2.80;99.90;;;;;;4998526;28;19933;-86
2021/12/20 10:19:37;;;;;;;;;;;2.80;99.90;;;;;;4982259;28;19925;-86
2021/12/20 10:22:16;;;;;;;;;;;2.80;99.90;;;;;;4999881;28;20007;-86
2021/12/20 10:24:44;;;;;;;;;;;2.90;99.90;;;;;;4999036;28;19930;-86
2021/12/20 10:27:22;;;;;;;;;;;2.90;99.90;;;;;;4982535;28;19925;-86
2021/12/20 10:30:01;;;;;;;;;;;2.90;99.90;;;;;;4998694;28;19933;-86
2021/12/20 10:32:37;;;;;;;;;;;3.10;99.90;;;;;;4999623;28;20024;-86
2021/12/20 10:35:02;;;;;;;;;;;3.20;99.90;;;;;;5030995;28;20020;-86
2021/12/20 10:37:40;;;;;;;;;;;3.20;99.90;;;;;;4980207;28;20012;-86
2021/12/20 10:40:08;;;;;;;;;;;3.30;99.90;;;;;;5014845;28;19933;-86
2021/12/20 10:42:39;;;;;;;;;;;3.30;99.90;;;;;;4997678;28;19929;-86
2021/12/20 10:45:13;;;;;;;;;;;3.40;99.90;;;;;;4981817;28;19925;-86
2021/12/20 10:47:41;;;;;;;;;;;3.40;99.90;;;;;;4981717;28;20031;-86
2021/12/20 10:50:22;;;;;;;;;;;3.50;99.90;;;;;;4981794;28;19925;-86
2021/12/20 10:52:47;;;;;;;;;;;3.50;99.90;;;;;;5014064;28;19933;-85
2021/12/20 10:55:15;;;;;;;;;;;3.60;99.90;;;;;;4981698;28;19925;-86
2021/12/20 10:57:43;;;;;;;;;;;3.70;99.90;;;;;;4997889;28;19972;-86
2021/12/20 11:00:18;;;;;;;;;;;3.70;99.90;;;;;;4982123;28;19926;-86
2021/12/20 11:05:38;;;;;;;;;;;3.80;99.90;;;;;;5014258;28;19925;-86
2021/12/20 11:11:26;;;;;;;;;;;4.00;99.90;;;;;;5013686;28;19936;-84
2021/12/20 11:13:52;;;;;;;;;;;4.00;99.90;;;;;;4997608;28;20358;-84
2021/12/20 11:16:27;;;;;;;;;;;4.10;99.90;;;;;;4997137;28;20298;-84
2021/12/20 11:19:13;;;;;;;;;;;4.20;99.90;;;;;;5014036;28;20055;-84
2021/12/20 11:22:09;;;;;;;;;;;4.30;99.90;;;;;;5012467;28;19929;-83
2021/12/20 11:24:39;;;;;;;;;;;4.40;99.90;;;;;;5013563;28;19926;-84
2021/12/20 11:27:06;;;;;;;;;;;4.50;99.90;;;;;;4981422;28;19933;-85
2021/12/20 11:29:32;;;;;;;;;;;4.60;99.90;;;;;;4980874;28;19933;-84
2021/12/20 11:31:58;;;;;;;;;;;4.60;99.90;;;;;;4997413;28;19925;-85
2021/12/20 11:34:23;;;;;;;;;;;4.70;99.90;;;;;;4996858;28;19925;-84
2021/12/20 11:36:49;;;;;;;;;;;4.80;99.90;;;;;;4981140;28;19925;-83
2021/12/20 11:39:15;;;;;;;;;;;4.80;99.90;;;;;;5013672;28;19932;-83
2021/12/20 11:41:40;;;;;;;;;;;4.90;99.90;;;;;;4980583;28;20341;-83
2021/12/20 11:44:07;;;;;;;;;;;4.90;99.90;;;;;;4980985;28;20038;-83
2021/12/20 11:46:53;;;;;;;;;;;4.90;99.90;;;;;;4996071;28;19925;-83
2021/12/20 11:49:20;;;;;;;;;;;4.90;99.90;;;;;;4980535;28;19976;-83
2021/12/20 11:51:56;;;;;;;;;;;5.00;99.90;;;;;;5029173;28;20394;-83
2021/12/20 11:54:31;;;;;;;;;;;5.00;99.90;;;;;;5000304;28;20280;-83
2021/12/20 11:56:57;;;;;;;;;;;5.00;99.90;;;;;;4999779;28;19968;-83
2021/12/20 11:59:44;;;;;;;;;;;5.00;99.90;;;;;;4999798;28;19976;-83
2021/12/20 12:02:21;;;;;;;;;;;5.10;99.90;;;;;;5016314;28;19978;-83
2021/12/20 12:04:56;;;;;;;;;;;5.00;99.90;;;;;;5016011;28;19976;-84
2021/12/20 12:07:22;;;;;;;;;;;5.00;99.90;;;;;;4999817;28;19939;-83
2021/12/20 12:09:58;;;;;;;;;;;5.00;99.90;;;;;;4999440;28;19925;-83
2021/12/20 12:12:24;;;;;;;;;;;5.10;99.90;;;;;;4999724;28;19929;-83
2021/12/20 12:14:58;;;;;;;;;;;5.10;99.90;;;;;;4999253;28;20377;-83
2021/12/20 12:17:24;;;;;;;;;;;5.10;99.90;;;;;;4983756;28;19975;-83
2021/12/20 12:19:52;;;;;;;;;;;5.10;99.90;;;;;;5012094;28;19925;-84
2021/12/20 12:22:29;;;;;;;;;;;5.10;99.90;;;;;;4999892;28;19925;-84
2021/12/20 12:24:55;;;;;;;;;;;5.00;99.90;;;;;;5016031;28;19947;-84
2021/12/20 12:27:24;;;;;;;;;;;5.20;99.90;;;;;;4999639;28;19924;-84
2021/12/20 12:30:09;;;;;;;;;;;5.00;99.90;;;;;;4999169;28;19937;-84
2021/12/20 12:32:34;;;;;;;;;;;5.00;99.90;;;;;;5015505;28;19948;-84
2021/12/20 12:35:00;;;;;;;;;;;5.10;99.90;;;;;;4983165;28;19925;-84
2021/12/20 12:37:32;;;;;;;;;;;5.00;99.90;;;;;;4999491;28;19968;-83
2021/12/20 12:40:16;;;;;;;;;;;5.10;99.90;;;;;;4984407;28;19925;-84
2021/12/20 12:42:48;;;;;;;;;;;5.00;99.90;;;;;;5015406;28;20023;-84
2021/12/20 12:45:16;;;;;;;;;;;5.10;99.90;;;;;;4999573;28;19925;-84
2021/12/20 12:47:41;;;;;;;;;;;5.00;99.90;;;;;;5031751;28;19929;-84
2021/12/20 12:50:07;;;;;;;;;;;5.00;99.90;;;;;;5015739;28;19925;-84
2021/12/20 12:52:33;;;;;;;;;;;5.10;99.90;;;;;;4995976;28;19925;-84
2021/12/20 12:55:25;;;;;;;;;;;5.00;99.90;;;;;;4999371;28;19925;-84
2021/12/20 12:57:50;;;;;;;;;;;5.00;99.90;;;;;;4995833;28;20186;-84
2021/12/20 13:00:16;;;;;;;;;;;5.10;99.90;;;;;;4998611;28;19929;-84
2021/12/20 13:02:43;;;;;;;;;;;5.10;99.90;;;;;;4998871;28;19932;-84
2021/12/20 13:05:13;;;;;;;;;;;5.10;99.90;;;;;;4999383;28;19925;-84
2021/12/20 13:07:42;;;;;;;;;;;5.10;99.90;;;;;;5015173;28;19974;-84
2021/12/20 13:10:21;;;;;;;;;;;5.10;99.90;;;;;;4999163;28;20019;-83
2021/12/20 13:12:56;;;;;;;;;;;5.10;99.90;;;;;;4998906;28;20016;-83
2021/12/20 13:15:41;;;;;;;;;;;5.10;99.90;;;;;;4984090;28;19979;-83
2021/12/20 13:18:09;;;;;;;;;;;5.10;99.90;;;;;;5001584;28;19925;-83
2021/12/20 13:20:44;;;;;;;;;;;5.10;99.90;;;;;;4982527;28;19925;-83
2021/12/20 13:23:11;;;;;;;;;;;5.00;99.90;;;;;;5000081;28;20328;-83
2021/12/20 13:25:39;;;;;;;;;;;5.10;99.90;;;;;;4998701;28;20285;-83
2021/12/20 13:28:06;;;;;;;;;;;5.10;99.90;;;;;;4998693;28;20367;-83
2021/12/20 13:30:38;;;;;;;;;;;5.10;99.90;;;;;;4999126;28;19999;-83
2021/12/20 13:33:03;;;;;;;;;;;5.00;99.90;;;;;;5015408;28;19971;-83
2021/12/20 13:35:29;;;;;;;;;;;5.00;99.90;;;;;;4998761;28;20024;-83
2021/12/20 13:38:14;;;;;;;;;;;4.90;99.90;;;;;;4998231;28;20336;-82
2021/12/20 13:40:43;;;;;;;;;;;5.00;99.90;;;;;;4998488;28;19925;-84
2021/12/20 13:43:12;;;;;;;;;;;4.90;99.90;;;;;;5014936;28;19926;-83
2021/12/20 13:45:37;;;;;;;;;;;4.90;99.90;;;;;;4998894;28;19925;-83
2021/12/20 13:48:07;;;;;;;;;;;4.80;99.90;;;;;;4982295;28;20407;-83
2021/12/20 13:50:32;;;;;;;;;;;4.90;99.90;;;;;;4998764;28;20440;-83
2021/12/20 13:52:58;;;;;;;;;;;4.80;99.90;;;;;;4997918;28;19968;-84
2021/12/20 13:55:24;;;;;;;;;;;4.80;99.90;;;;;;4982263;28;19971;-83
2021/12/20 13:57:49;;;;;;;;;;;4.70;99.90;;;;;;5031149;28;19932;-84
2021/12/20 14:00:15;;;;;;;;;;;4.70;99.90;;;;;;4982433;28;19976;-83
2021/12/20 14:02:45;;;;;;;;;;;4.60;99.90;;;;;;4982683;28;19929;-83
2021/12/20 14:05:18;;;;;;;;;;;4.60;99.90;;;;;;4998701;28;20436;-83
2021/12/20 14:07:48;;;;;;;;;;;4.60;99.90;;;;;;4982123;28;19925;-84
2021/12/20 14:10:18;;;;;;;;;;;4.50;99.90;;;;;;4999152;28;19925;-83
2021/12/20 14:12:47;;;;;;;;;;;4.50;99.90;;;;;;4985711;28;19975;-84
2021/12/20 14:15:13;;;;;;;;;;;4.40;99.90;;;;;;5018290;28;20024;-84
2021/12/20 14:17:55;;;;;;;;;;;4.30;99.90;;;;;;5018486;28;19965;-83
2021/12/20 14:20:21;;;;;;;;;;;4.30;99.90;;;;;;5001998;28;20278;-83
2021/12/20 14:22:51;;;;;;;;;;;4.20;99.90;;;;;;5001458;28;19925;-84
2021/12/20 14:25:16;;;;;;;;;;;4.20;99.90;;;;;;5001735;28;19929;-83
2021/12/20 14:27:42;;;;;;;;;;;4.10;99.90;;;;;;5002027;28;19986;-83
2021/12/20 14:30:21;;;;;;;;;;;4.10;99.90;;;;;;5001124;28;19925;-83
2021/12/20 14:32:48;;;;;;;;;;;4.00;99.90;;;;;;5018091;28;19948;-84
2021/12/20 14:35:27;;;;;;;;;;;4.00;99.90;;;;;;4985661;28;19926;-83
2021/12/20 14:37:54;;;;;;;;;;;3.90;99.90;;;;;;5001387;28;20317;-83
2021/12/20 14:40:38;;;;;;;;;;;3.90;99.90;;;;;;4985625;28;20266;-83
2021/12/20 14:43:06;;;;;;;;;;;3.90;99.90;;;;;;5000843;28;19932;-83
2021/12/20 14:45:32;;;;;;;;;;;3.80;99.90;;;;;;5000672;28;20020;-83
2021/12/20 14:48:14;;;;;;;;;;;3.80;99.90;;;;;;5000654;28;19976;-83
2021/12/20 14:50:46;;;;;;;;;;;3.70;99.90;;;;;;4985084;28;20315;-83
2021/12/20 14:53:21;;;;;;;;;;;3.70;99.90;;;;;;5000422;28;20015;-83
2021/12/20 14:55:49;;;;;;;;;;;3.70;99.90;;;;;;5001225;28;19932;-83
2021/12/20 14:58:14;;;;;;;;;;;3.60;99.90;;;;;;5001047;28;20016;-83
2021/12/20 15:00:41;;;;;;;;;;;3.50;99.90;;;;;;5034170;28;19999;-83
2021/12/20 15:03:07;;;;;;;;;;;3.50;99.90;;;;;;5000899;28;20278;-83
2021/12/20 15:05:33;;;;;;;;;;;3.50;99.90;;;;;;5001217;28;20336;-83
2021/12/20 15:07:59;;;;;;;;;;;3.40;99.90;;;;;;5000227;28;19925;-83